sensor_id;sensor_type;location;lat;lon;timestamp;pressure;altitude;pressure_sealevel;temperature
31528;BMP280;10206;48.012;10.030;2023-05-07T00:01:59;94726.47;;;14.52
31528;BMP280;10206;48.012;10.030;2023-05-07T00:04:25;94723.72;;;14.52
31528;BMP280;10206;48.012;10.030;2023-05-07T00:06:52;94729.13;;;14.06
31528;BMP280;10206;48.012;10.030;2023-05-07T00:09:18;94728.94;;;14.37
31528;BMP280;10206;48.012;10.030;2023-05-07T00:11:44;94728.22;;;14.36
31528;BMP280;10206;48.012;10.030;2023-05-07T00:14:10;94730.25;;;14.36
31528;BMP280;10206;48.012;10.030;2023-05-07T00:16:36;94722.47;;;14.32
31528;BMP280;10206;48.012;10.030;2023-05-07T00:19:04;94721.44;;;14.37
31528;BMP280;10206;48.012;10.030;2023-05-07T00:21:30;94725.25;;;14.44
31528;BMP280;10206;48.012;10.030;2023-05-07T00:23:56;94728.56;;;14.31
31528;BMP280;10206;48.012;10.030;2023-05-07T00:26:22;94725.50;;;14.03
31528;BMP280;10206;48.012;10.030;2023-05-07T00:28:48;94719.50;;;14.28
31528;BMP280;10206;48.012;10.030;2023-05-07T00:31:15;94720.31;;;14.19
31528;BMP280;10206;48.012;10.030;2023-05-07T00:33:41;94722.78;;;13.82
31528;BMP280;10206;48.012;10.030;2023-05-07T00:36:07;94723.31;;;14.23
31528;BMP280;10206;48.012;10.030;2023-05-07T00:38:33;94720.59;;;14.35
31528;BMP280;10206;48.012;10.030;2023-05-07T00:40:59;94719.72;;;14.32
31528;BMP280;10206;48.012;10.030;2023-05-07T00:43:25;94719.28;;;14.36
31528;BMP280;10206;48.012;10.030;2023-05-07T00:45:53;94717.41;;;14.06
31528;BMP280;10206;48.012;10.030;2023-05-07T00:48:20;94719.34;;;14.15
31528;BMP280;10206;48.012;10.030;2023-05-07T00:50:46;94721.34;;;14.14
31528;BMP280;10206;48.012;10.030;2023-05-07T00:53:13;94724.28;;;14.06
31528;BMP280;10206;48.012;10.030;2023-05-07T00:55:40;94722.47;;;13.88
31528;BMP280;10206;48.012;10.030;2023-05-07T00:58:06;94716.16;;;13.97
31528;BMP280;10206;48.012;10.030;2023-05-07T01:00:33;94705.25;;;14.09
31528;BMP280;10206;48.012;10.030;2023-05-07T01:02:59;94704.81;;;14.12
31528;BMP280;10206;48.012;10.030;2023-05-07T01:05:26;94703.91;;;14.10
31528;BMP280;10206;48.012;10.030;2023-05-07T01:07:54;94706.59;;;14.19
31528;BMP280;10206;48.012;10.030;2023-05-07T01:10:21;94699.59;;;14.06
31528;BMP280;10206;48.012;10.030;2023-05-07T01:12:49;94701.44;;;14.14
31528;BMP280;10206;48.012;10.030;2023-05-07T01:15:16;94689.69;;;13.90
31528;BMP280;10206;48.012;10.030;2023-05-07T01:17:43;94690.81;;;14.08
31528;BMP280;10206;48.012;10.030;2023-05-07T01:20:09;94691.28;;;14.04
31528;BMP280;10206;48.012;10.030;2023-05-07T01:22:37;94683.78;;;14.17
31528;BMP280;10206;48.012;10.030;2023-05-07T01:25:05;94684.44;;;13.94
31528;BMP280;10206;48.012;10.030;2023-05-07T01:27:31;94684.34;;;14.03
31528;BMP280;10206;48.012;10.030;2023-05-07T01:29:59;94692.47;;;14.13
31528;BMP280;10206;48.012;10.030;2023-05-07T01:32:33;94696.47;;;14.22
31528;BMP280;10206;48.012;10.030;2023-05-07T01:35:02;94698.66;;;14.35
31528;BMP280;10206;48.012;10.030;2023-05-07T01:37:28;94704.50;;;14.41
31528;BMP280;10206;48.012;10.030;2023-05-07T01:39:55;94703.84;;;14.19
31528;BMP280;10206;48.012;10.030;2023-05-07T01:42:22;94703.06;;;14.07
31528;BMP280;10206;48.012;10.030;2023-05-07T01:44:48;94698.50;;;14.21
31528;BMP280;10206;48.012;10.030;2023-05-07T01:47:15;94698.00;;;14.25
31528;BMP280;10206;48.012;10.030;2023-05-07T01:49:42;94694.41;;;14.11
31528;BMP280;10206;48.012;10.030;2023-05-07T01:52:10;94699.41;;;14.14
31528;BMP280;10206;48.012;10.030;2023-05-07T01:54:36;94695.88;;;14.23
31528;BMP280;10206;48.012;10.030;2023-05-07T01:57:02;94699.41;;;14.14
31528;BMP280;10206;48.012;10.030;2023-05-07T01:59:28;94703.34;;;14.11
31528;BMP280;10206;48.012;10.030;2023-05-07T02:01:54;94699.53;;;14.16
31528;BMP280;10206;48.012;10.030;2023-05-07T02:04:20;94700.97;;;14.17
31528;BMP280;10206;48.012;10.030;2023-05-07T02:06:46;94694.56;;;14.24
31528;BMP280;10206;48.012;10.030;2023-05-07T02:09:14;94693.56;;;14.20
31528;BMP280;10206;48.012;10.030;2023-05-07T02:11:40;94700.72;;;14.13
31528;BMP280;10206;48.012;10.030;2023-05-07T02:14:06;94700.00;;;14.13
31528;BMP280;10206;48.012;10.030;2023-05-07T02:16:32;94705.81;;;14.07
31528;BMP280;10206;48.012;10.030;2023-05-07T02:18:59;94696.78;;;14.04
31528;BMP280;10206;48.012;10.030;2023-05-07T02:21:25;94693.06;;;14.00
31528;BMP280;10206;48.012;10.030;2023-05-07T02:23:51;94690.91;;;13.98
31528;BMP280;10206;48.012;10.030;2023-05-07T02:26:17;94689.00;;;14.01
31528;BMP280;10206;48.012;10.030;2023-05-07T02:28:44;94688.53;;;14.04
31528;BMP280;10206;48.012;10.030;2023-05-07T02:31:10;94688.03;;;13.96
31528;BMP280;10206;48.012;10.030;2023-05-07T02:33:36;94685.44;;;13.98
31528;BMP280;10206;48.012;10.030;2023-05-07T02:36:12;94691.88;;;14.03
31528;BMP280;10206;48.012;10.030;2023-05-07T02:38:38;94688.88;;;13.99
31528;BMP280;10206;48.012;10.030;2023-05-07T02:41:04;94698.84;;;13.94
31528;BMP280;10206;48.012;10.030;2023-05-07T02:43:31;94692.06;;;13.95
31528;BMP280;10206;48.012;10.030;2023-05-07T02:46:08;94693.47;;;13.85
31528;BMP280;10206;48.012;10.030;2023-05-07T02:48:34;94686.75;;;13.76
31528;BMP280;10206;48.012;10.030;2023-05-07T02:51:00;94683.69;;;13.82
31528;BMP280;10206;48.012;10.030;2023-05-07T02:53:27;94684.75;;;13.77
31528;BMP280;10206;48.012;10.030;2023-05-07T02:55:56;94685.78;;;13.72
31528;BMP280;10206;48.012;10.030;2023-05-07T02:58:22;94692.22;;;13.44
31528;BMP280;10206;48.012;10.030;2023-05-07T03:00:48;94696.63;;;13.49
31528;BMP280;10206;48.012;10.030;2023-05-07T03:03:15;94682.53;;;13.43
31528;BMP280;10206;48.012;10.030;2023-05-07T03:05:41;94682.94;;;13.49
31528;BMP280;10206;48.012;10.030;2023-05-07T03:08:08;94684.47;;;13.52
31528;BMP280;10206;48.012;10.030;2023-05-07T03:10:34;94684.16;;;13.57
31528;BMP280;10206;48.012;10.030;2023-05-07T03:13:01;94677.13;;;13.54
31528;BMP280;10206;48.012;10.030;2023-05-07T03:15:27;94679.06;;;13.42
31528;BMP280;10206;48.012;10.030;2023-05-07T03:17:53;94679.06;;;13.42
31528;BMP280;10206;48.012;10.030;2023-05-07T03:20:19;94682.16;;;13.37
31528;BMP280;10206;48.012;10.030;2023-05-07T03:22:45;94685.66;;;13.49
31528;BMP280;10206;48.012;10.030;2023-05-07T03:25:12;94681.13;;;13.42
31528;BMP280;10206;48.012;10.030;2023-05-07T03:27:38;94691.34;;;13.41
31528;BMP280;10206;48.012;10.030;2023-05-07T03:30:04;94698.19;;;13.31
31528;BMP280;10206;48.012;10.030;2023-05-07T03:32:32;94692.19;;;13.22
31528;BMP280;10206;48.012;10.030;2023-05-07T03:34:58;94695.69;;;13.13
31528;BMP280;10206;48.012;10.030;2023-05-07T03:37:24;94688.13;;;13.02
31528;BMP280;10206;48.012;10.030;2023-05-07T03:39:51;94689.41;;;13.01
31528;BMP280;10206;48.012;10.030;2023-05-07T03:42:17;94685.38;;;13.02
31528;BMP280;10206;48.012;10.030;2023-05-07T03:44:43;94685.13;;;12.98
31528;BMP280;10206;48.012;10.030;2023-05-07T03:47:09;94684.81;;;12.94
31528;BMP280;10206;48.012;10.030;2023-05-07T03:49:36;94682.94;;;12.97
31528;BMP280;10206;48.012;10.030;2023-05-07T03:52:02;94679.28;;;12.83
31528;BMP280;10206;48.012;10.030;2023-05-07T03:54:28;94691.91;;;12.88
31528;BMP280;10206;48.012;10.030;2023-05-07T03:56:54;94692.09;;;12.80
31528;BMP280;10206;48.012;10.030;2023-05-07T03:59:21;94697.84;;;12.84
31528;BMP280;10206;48.012;10.030;2023-05-07T04:01:47;94692.50;;;12.86
31528;BMP280;10206;48.012;10.030;2023-05-07T04:04:14;94699.81;;;12.93
31528;BMP280;10206;48.012;10.030;2023-05-07T04:06:41;94695.78;;;12.94
31528;BMP280;10206;48.012;10.030;2023-05-07T04:09:07;94697.84;;;12.84
31528;BMP280;10206;48.012;10.030;2023-05-07T04:11:34;94705.59;;;12.88
31528;BMP280;10206;48.012;10.030;2023-05-07T04:14:00;94703.09;;;13.01
31528;BMP280;10206;48.012;10.030;2023-05-07T04:16:26;94700.19;;;13.09
31528;BMP280;10206;48.012;10.030;2023-05-07T04:18:52;94706.22;;;13.07
31528;BMP280;10206;48.012;10.030;2023-05-07T04:21:20;94703.31;;;13.15
31528;BMP280;10206;48.012;10.030;2023-05-07T04:23:47;94709.25;;;13.11
31528;BMP280;10206;48.012;10.030;2023-05-07T04:26:13;94703.38;;;13.26
31528;BMP280;10206;48.012;10.030;2023-05-07T04:28:39;94706.53;;;13.33
31528;BMP280;10206;48.012;10.030;2023-05-07T04:31:06;94713.06;;;13.49
31528;BMP280;10206;48.012;10.030;2023-05-07T04:33:33;94716.75;;;13.63
31528;BMP280;10206;48.012;10.030;2023-05-07T04:36:01;94720.59;;;13.69
31528;BMP280;10206;48.012;10.030;2023-05-07T04:38:29;94716.06;;;13.53
31528;BMP280;10206;48.012;10.030;2023-05-07T04:40:56;94721.84;;;14.11
31528;BMP280;10206;48.012;10.030;2023-05-07T04:43:23;94721.56;;;14.06
31528;BMP280;10206;48.012;10.030;2023-05-07T04:45:50;94719.78;;;14.55
31528;BMP280;10206;48.012;10.030;2023-05-07T04:48:17;94721.22;;;14.56
31528;BMP280;10206;48.012;10.030;2023-05-07T04:50:48;94715.47;;;14.41
31528;BMP280;10206;48.012;10.030;2023-05-07T04:53:14;94720.88;;;14.97
31528;BMP280;10206;48.012;10.030;2023-05-07T04:55:40;94716.69;;;15.30
31528;BMP280;10206;48.012;10.030;2023-05-07T04:58:07;94719.91;;;15.50
31528;BMP280;10206;48.012;10.030;2023-05-07T05:00:33;94721.72;;;15.70
31528;BMP280;10206;48.012;10.030;2023-05-07T05:02:59;94721.22;;;15.86
31528;BMP280;10206;48.012;10.030;2023-05-07T05:05:25;94714.97;;;16.10
31528;BMP280;10206;48.012;10.030;2023-05-07T05:07:51;94723.56;;;15.66
31528;BMP280;10206;48.012;10.030;2023-05-07T05:10:18;94729.28;;;15.70
31528;BMP280;10206;48.012;10.030;2023-05-07T05:12:44;94729.81;;;15.92
31528;BMP280;10206;48.012;10.030;2023-05-07T05:15:12;94728.41;;;16.04
31528;BMP280;10206;48.012;10.030;2023-05-07T05:17:38;94736.34;;;16.23
31528;BMP280;10206;48.012;10.030;2023-05-07T05:20:05;94738.94;;;16.08
31528;BMP280;10206;48.012;10.030;2023-05-07T05:22:32;94747.09;;;16.06
31528;BMP280;10206;48.012;10.030;2023-05-07T05:24:58;94747.16;;;16.19
31528;BMP280;10206;48.012;10.030;2023-05-07T05:27:24;94738.34;;;16.34
31528;BMP280;10206;48.012;10.030;2023-05-07T05:29:51;94741.66;;;16.44
31528;BMP280;10206;48.012;10.030;2023-05-07T05:32:17;94750.38;;;16.80
31528;BMP280;10206;48.012;10.030;2023-05-07T05:34:43;94744.78;;;17.18
31528;BMP280;10206;48.012;10.030;2023-05-07T05:37:09;94748.22;;;17.60
31528;BMP280;10206;48.012;10.030;2023-05-07T05:39:35;94746.75;;;17.72
31528;BMP280;10206;48.012;10.030;2023-05-07T05:42:01;94746.25;;;18.05
31528;BMP280;10206;48.012;10.030;2023-05-07T05:44:28;94750.97;;;18.02
31528;BMP280;10206;48.012;10.030;2023-05-07T05:47:00;94753.28;;;18.37
31528;BMP280;10206;48.012;10.030;2023-05-07T05:49:28;94756.69;;;18.67
31528;BMP280;10206;48.012;10.030;2023-05-07T05:51:55;94748.66;;;18.88
31528;BMP280;10206;48.012;10.030;2023-05-07T05:54:21;94751.41;;;19.04
31528;BMP280;10206;48.012;10.030;2023-05-07T05:56:47;94755.03;;;19.24
31528;BMP280;10206;48.012;10.030;2023-05-07T05:59:14;94753.94;;;19.31
31528;BMP280;10206;48.012;10.030;2023-05-07T06:01:40;94757.94;;;18.95
31528;BMP280;10206;48.012;10.030;2023-05-07T06:04:07;94757.91;;;19.26
31528;BMP280;10206;48.012;10.030;2023-05-07T06:06:33;94763.56;;;19.46
31528;BMP280;10206;48.012;10.030;2023-05-07T06:08:59;94756.69;;;19.64
31528;BMP280;10206;48.012;10.030;2023-05-07T06:11:26;94757.69;;;19.88
31528;BMP280;10206;48.012;10.030;2023-05-07T06:13:52;94767.50;;;19.91
31528;BMP280;10206;48.012;10.030;2023-05-07T06:16:18;94764.25;;;20.14
31528;BMP280;10206;48.012;10.030;2023-05-07T06:18:44;94759.34;;;19.95
31528;BMP280;10206;48.012;10.030;2023-05-07T06:21:13;94760.63;;;20.47
31528;BMP280;10206;48.012;10.030;2023-05-07T06:23:39;94761.31;;;20.65
31528;BMP280;10206;48.012;10.030;2023-05-07T06:26:06;94763.97;;;20.63
31528;BMP280;10206;48.012;10.030;2023-05-07T06:28:32;94765.06;;;20.91
31528;BMP280;10206;48.012;10.030;2023-05-07T06:31:19;94755.63;;;20.81
31528;BMP280;10206;48.012;10.030;2023-05-07T06:33:49;94759.63;;;21.15
31528;BMP280;10206;48.012;10.030;2023-05-07T06:36:15;94758.31;;;21.18
31528;BMP280;10206;48.012;10.030;2023-05-07T06:38:41;94764.69;;;21.01
31528;BMP280;10206;48.012;10.030;2023-05-07T06:41:07;94759.91;;;20.84
31528;BMP280;10206;48.012;10.030;2023-05-07T06:43:34;94762.38;;;21.15
31528;BMP280;10206;48.012;10.030;2023-05-07T06:46:01;94761.94;;;21.64
31528;BMP280;10206;48.012;10.030;2023-05-07T06:48:27;94772.09;;;21.77
31528;BMP280;10206;48.012;10.030;2023-05-07T06:50:53;94763.41;;;22.33
31528;BMP280;10206;48.012;10.030;2023-05-07T06:53:21;94765.31;;;22.50
31528;BMP280;10206;48.012;10.030;2023-05-07T06:55:47;94764.38;;;22.91
31528;BMP280;10206;48.012;10.030;2023-05-07T06:58:13;94765.56;;;22.58
31528;BMP280;10206;48.012;10.030;2023-05-07T07:00:39;94765.59;;;22.37
31528;BMP280;10206;48.012;10.030;2023-05-07T07:03:06;94776.47;;;22.52
31528;BMP280;10206;48.012;10.030;2023-05-07T07:05:32;94770.59;;;22.17
31528;BMP280;10206;48.012;10.030;2023-05-07T07:07:59;94771.00;;;22.31
31528;BMP280;10206;48.012;10.030;2023-05-07T07:10:25;94766.44;;;22.65
31528;BMP280;10206;48.012;10.030;2023-05-07T07:12:51;94768.13;;;23.02
31528;BMP280;10206;48.012;10.030;2023-05-07T07:15:20;94768.78;;;23.53
31528;BMP280;10206;48.012;10.030;2023-05-07T07:17:47;94766.47;;;23.44
31528;BMP280;10206;48.012;10.030;2023-05-07T07:20:13;94766.50;;;23.46
31528;BMP280;10206;48.012;10.030;2023-05-07T07:22:39;94762.34;;;23.47
31528;BMP280;10206;48.012;10.030;2023-05-07T07:25:06;94766.09;;;23.57
31528;BMP280;10206;48.012;10.030;2023-05-07T07:27:32;94763.78;;;24.07
31528;BMP280;10206;48.012;10.030;2023-05-07T07:29:58;94768.19;;;23.57
31528;BMP280;10206;48.012;10.030;2023-05-07T07:32:24;94770.03;;;23.76
31528;BMP280;10206;48.012;10.030;2023-05-07T07:34:50;94767.06;;;23.68
31528;BMP280;10206;48.012;10.030;2023-05-07T07:37:16;94760.72;;;23.95
31528;BMP280;10206;48.012;10.030;2023-05-07T07:39:42;94767.09;;;23.70
31528;BMP280;10206;48.012;10.030;2023-05-07T07:42:08;94767.47;;;23.56
31528;BMP280;10206;48.012;10.030;2023-05-07T07:44:34;94768.66;;;23.77
31528;BMP280;10206;48.012;10.030;2023-05-07T07:47:01;94769.41;;;24.09
31528;BMP280;10206;48.012;10.030;2023-05-07T07:49:27;94769.63;;;24.19
31528;BMP280;10206;48.012;10.030;2023-05-07T07:51:53;94766.84;;;23.60
31528;BMP280;10206;48.012;10.030;2023-05-07T07:54:19;94764.09;;;23.32
31528;BMP280;10206;48.012;10.030;2023-05-07T07:56:45;94768.53;;;23.43
31528;BMP280;10206;48.012;10.030;2023-05-07T07:59:11;94764.19;;;23.94
31528;BMP280;10206;48.012;10.030;2023-05-07T08:01:39;94769.44;;;23.81
31528;BMP280;10206;48.012;10.030;2023-05-07T08:04:05;94769.97;;;24.04
31528;BMP280;10206;48.012;10.030;2023-05-07T08:06:32;94774.13;;;24.34
31528;BMP280;10206;48.012;10.030;2023-05-07T08:08:58;94768.69;;;24.40
31528;BMP280;10206;48.012;10.030;2023-05-07T08:11:24;94769.31;;;24.37
31528;BMP280;10206;48.012;10.030;2023-05-07T08:13:51;94772.69;;;25.00
31528;BMP280;10206;48.012;10.030;2023-05-07T08:16:17;94771.09;;;25.29
31528;BMP280;10206;48.012;10.030;2023-05-07T08:18:43;94774.56;;;23.61
31528;BMP280;10206;48.012;10.030;2023-05-07T08:21:09;94770.13;;;23.52
31528;BMP280;10206;48.012;10.030;2023-05-07T08:23:35;94781.03;;;23.70
31528;BMP280;10206;48.012;10.030;2023-05-07T08:26:01;94775.69;;;24.41
31528;BMP280;10206;48.012;10.030;2023-05-07T08:28:28;94778.13;;;24.92
31528;BMP280;10206;48.012;10.030;2023-05-07T08:30:54;94776.09;;;24.61
31528;BMP280;10206;48.012;10.030;2023-05-07T08:33:22;94781.19;;;25.08
31528;BMP280;10206;48.012;10.030;2023-05-07T08:35:48;94784.41;;;25.31
31528;BMP280;10206;48.012;10.030;2023-05-07T08:38:14;94786.19;;;25.54
31528;BMP280;10206;48.012;10.030;2023-05-07T08:40:40;94781.78;;;25.84
31528;BMP280;10206;48.012;10.030;2023-05-07T08:43:07;94781.69;;;25.78
31528;BMP280;10206;48.012;10.030;2023-05-07T08:45:34;94782.69;;;25.97
31528;BMP280;10206;48.012;10.030;2023-05-07T08:48:03;94780.00;;;26.05
31528;BMP280;10206;48.012;10.030;2023-05-07T08:50:31;94780.88;;;25.72
31528;BMP280;10206;48.012;10.030;2023-05-07T08:52:57;94780.00;;;25.20
31528;BMP280;10206;48.012;10.030;2023-05-07T08:55:24;94778.66;;;24.85
31528;BMP280;10206;48.012;10.030;2023-05-07T08:57:50;94786.91;;;25.54
31528;BMP280;10206;48.012;10.030;2023-05-07T09:00:18;94788.97;;;25.52
31528;BMP280;10206;48.012;10.030;2023-05-07T09:02:44;94789.19;;;25.66
31528;BMP280;10206;48.012;10.030;2023-05-07T09:05:10;94784.28;;;26.10
31528;BMP280;10206;48.012;10.030;2023-05-07T09:07:36;94786.78;;;26.41
31528;BMP280;10206;48.012;10.030;2023-05-07T09:10:03;94778.25;;;26.29
31528;BMP280;10206;48.012;10.030;2023-05-07T09:12:30;94781.75;;;26.88
31528;BMP280;10206;48.012;10.030;2023-05-07T09:14:56;94773.00;;;27.25
31528;BMP280;10206;48.012;10.030;2023-05-07T09:17:22;94780.44;;;26.95
31528;BMP280;10206;48.012;10.030;2023-05-07T09:19:48;94783.91;;;26.93
31528;BMP280;10206;48.012;10.030;2023-05-07T09:22:15;94775.19;;;26.63
31528;BMP280;10206;48.012;10.030;2023-05-07T09:24:41;94783.88;;;26.89
31528;BMP280;10206;48.012;10.030;2023-05-07T09:27:12;94786.34;;;26.09
31528;BMP280;10206;48.012;10.030;2023-05-07T09:29:39;94779.44;;;26.68
31528;BMP280;10206;48.012;10.030;2023-05-07T09:32:06;94786.81;;;27.01
31528;BMP280;10206;48.012;10.030;2023-05-07T09:34:34;94778.78;;;27.37
31528;BMP280;10206;48.012;10.030;2023-05-07T09:37:03;94779.59;;;25.79
31528;BMP280;10206;48.012;10.030;2023-05-07T09:39:46;94781.50;;;26.12
31528;BMP280;10206;48.012;10.030;2023-05-07T09:42:13;94787.25;;;26.24
31528;BMP280;10206;48.012;10.030;2023-05-07T09:44:41;94782.88;;;26.09
31528;BMP280;10206;48.012;10.030;2023-05-07T09:47:09;94784.09;;;26.49
31528;BMP280;10206;48.012;10.030;2023-05-07T09:49:37;94782.94;;;26.69
31528;BMP280;10206;48.012;10.030;2023-05-07T09:52:06;94790.72;;;26.22
31528;BMP280;10206;48.012;10.030;2023-05-07T09:54:35;94781.13;;;26.93
31528;BMP280;10206;48.012;10.030;2023-05-07T09:57:05;94776.59;;;26.64
31528;BMP280;10206;48.012;10.030;2023-05-07T09:59:32;94771.09;;;26.74
31528;BMP280;10206;48.012;10.030;2023-05-07T10:02:00;94774.56;;;26.71
31528;BMP280;10206;48.012;10.030;2023-05-07T10:04:27;94775.47;;;26.87
31528;BMP280;10206;48.012;10.030;2023-05-07T10:06:54;94778.31;;;26.93
31528;BMP280;10206;48.012;10.030;2023-05-07T10:09:21;94768.75;;;27.18
31528;BMP280;10206;48.012;10.030;2023-05-07T10:11:51;94766.75;;;27.29
31528;BMP280;10206;48.012;10.030;2023-05-07T10:14:20;94774.94;;;27.05
31528;BMP280;10206;48.012;10.030;2023-05-07T10:16:48;94775.13;;;27.25
31528;BMP280;10206;48.012;10.030;2023-05-07T10:19:14;94772.78;;;26.99
31528;BMP280;10206;48.012;10.030;2023-05-07T10:21:54;94773.97;;;26.78
31528;BMP280;10206;48.012;10.030;2023-05-07T10:24:32;94763.88;;;26.55
31528;BMP280;10206;48.012;10.030;2023-05-07T10:27:01;94764.72;;;26.68
31528;BMP280;10206;48.012;10.030;2023-05-07T10:35:10;94770.53;;;26.28
31528;BMP280;10206;48.012;10.030;2023-05-07T10:37:37;94767.59;;;26.74
31528;BMP280;10206;48.012;10.030;2023-05-07T10:40:03;94771.22;;;26.84
31528;BMP280;10206;48.012;10.030;2023-05-07T10:42:30;94763.22;;;26.59
31528;BMP280;10206;48.012;10.030;2023-05-07T10:44:56;94767.75;;;26.88
31528;BMP280;10206;48.012;10.030;2023-05-07T10:47:23;94759.72;;;26.58
31528;BMP280;10206;48.012;10.030;2023-05-07T10:52:20;94759.81;;;26.12
31528;BMP280;10206;48.012;10.030;2023-05-07T10:54:46;94758.88;;;25.94
31528;BMP280;10206;48.012;10.030;2023-05-07T10:59:57;94757.78;;;26.15
31528;BMP280;10206;48.012;10.030;2023-05-07T11:02:26;94750.91;;;26.26
31528;BMP280;10206;48.012;10.030;2023-05-07T11:05:20;94750.00;;;26.09
31528;BMP280;10206;48.012;10.030;2023-05-07T11:07:55;94743.25;;;25.79
31528;BMP280;10206;48.012;10.030;2023-05-07T11:10:21;94752.75;;;25.60
31528;BMP280;10206;48.012;10.030;2023-05-07T11:12:48;94752.94;;;25.72
31528;BMP280;10206;48.012;10.030;2023-05-07T11:15:16;94754.28;;;25.67
31528;BMP280;10206;48.012;10.030;2023-05-07T11:17:59;94749.38;;;25.67
31528;BMP280;10206;48.012;10.030;2023-05-07T11:20:48;94748.13;;;25.78
31528;BMP280;10206;48.012;10.030;2023-05-07T11:26:08;94745.88;;;25.67
31528;BMP280;10206;48.012;10.030;2023-05-07T11:28:41;94755.13;;;25.77
31528;BMP280;10206;48.012;10.030;2023-05-07T11:31:08;94749.63;;;25.40
31528;BMP280;10206;48.012;10.030;2023-05-07T11:33:35;94738.59;;;25.93
31528;BMP280;10206;48.012;10.030;2023-05-07T11:36:05;94749.72;;;26.41
31528;BMP280;10206;48.012;10.030;2023-05-07T11:38:37;94744.91;;;27.11
31528;BMP280;10206;48.012;10.030;2023-05-07T11:41:04;94738.75;;;26.61
31528;BMP280;10206;48.012;10.030;2023-05-07T11:43:31;94745.84;;;26.70
31528;BMP280;10206;48.012;10.030;2023-05-07T11:46:08;94742.94;;;27.32
31528;BMP280;10206;48.012;10.030;2023-05-07T11:48:34;94729.88;;;27.62
31528;BMP280;10206;48.012;10.030;2023-05-07T11:51:02;94739.75;;;27.67
31528;BMP280;10206;48.012;10.030;2023-05-07T11:53:36;94737.66;;;27.68
31528;BMP280;10206;48.012;10.030;2023-05-07T11:56:10;94745.75;;;27.30
31528;BMP280;10206;48.012;10.030;2023-05-07T11:58:37;94749.00;;;27.90
31528;BMP280;10206;48.012;10.030;2023-05-07T12:01:03;94747.47;;;27.71
31528;BMP280;10206;48.012;10.030;2023-05-07T12:03:29;94733.16;;;27.33
31528;BMP280;10206;48.012;10.030;2023-05-07T12:05:56;94738.25;;;27.52
31528;BMP280;10206;48.012;10.030;2023-05-07T12:08:22;94728.31;;;27.41
31528;BMP280;10206;48.012;10.030;2023-05-07T12:10:51;94727.78;;;26.81
31528;BMP280;10206;48.012;10.030;2023-05-07T12:13:19;94728.84;;;27.18
31528;BMP280;10206;48.012;10.030;2023-05-07T12:15:45;94733.31;;;26.73
31528;BMP280;10206;48.012;10.030;2023-05-07T12:18:13;94734.53;;;27.32
31528;BMP280;10206;48.012;10.030;2023-05-07T12:20:39;94729.66;;;27.30
31528;BMP280;10206;48.012;10.030;2023-05-07T12:23:06;94731.34;;;27.71
31528;BMP280;10206;48.012;10.030;2023-05-07T12:25:36;94737.06;;;27.83
31528;BMP280;10206;48.012;10.030;2023-05-07T12:28:03;94725.06;;;27.71
31528;BMP280;10206;48.012;10.030;2023-05-07T12:30:31;94723.09;;;27.97
31528;BMP280;10206;48.012;10.030;2023-05-07T12:32:58;94724.56;;;27.11
31528;BMP280;10206;48.012;10.030;2023-05-07T12:35:32;94726.41;;;26.84
31528;BMP280;10206;48.012;10.030;2023-05-07T12:37:59;94721.50;;;27.68
31528;BMP280;10206;48.012;10.030;2023-05-07T12:43:02;94721.59;;;27.80
31528;BMP280;10206;48.012;10.030;2023-05-07T12:45:28;94715.34;;;27.92
31528;BMP280;10206;48.012;10.030;2023-05-07T12:47:54;94716.03;;;27.86
31528;BMP280;10206;48.012;10.030;2023-05-07T12:50:20;94713.56;;;28.83
31528;BMP280;10206;48.012;10.030;2023-05-07T12:52:48;94712.91;;;29.02
31528;BMP280;10206;48.012;10.030;2023-05-07T12:55:16;94707.94;;;28.71
31528;BMP280;10206;48.012;10.030;2023-05-07T12:57:50;94711.97;;;28.14
31528;BMP280;10206;48.012;10.030;2023-05-07T13:00:17;94700.50;;;27.71
31528;BMP280;10206;48.012;10.030;2023-05-07T13:02:44;94693.63;;;27.88
31528;BMP280;10206;48.012;10.030;2023-05-07T13:05:11;94693.44;;;26.77
31528;BMP280;10206;48.012;10.030;2023-05-07T13:07:37;94697.78;;;27.83
31528;BMP280;10206;48.012;10.030;2023-05-07T13:10:04;94695.38;;;27.36
31528;BMP280;10206;48.012;10.030;2023-05-07T13:12:30;94696.00;;;27.26
31528;BMP280;10206;48.012;10.030;2023-05-07T13:14:56;94691.97;;;27.49
31528;BMP280;10206;48.012;10.030;2023-05-07T13:17:22;94686.72;;;27.10
31528;BMP280;10206;48.012;10.030;2023-05-07T13:19:48;94691.16;;;27.31
31528;BMP280;10206;48.012;10.030;2023-05-07T13:22:14;94696.28;;;27.64
31528;BMP280;10206;48.012;10.030;2023-05-07T13:24:40;94691.06;;;27.21
31528;BMP280;10206;48.012;10.030;2023-05-07T13:27:08;94693.91;;;26.55
31528;BMP280;10206;48.012;10.030;2023-05-07T13:29:34;94690.22;;;26.38
31528;BMP280;10206;48.012;10.030;2023-05-07T13:32:01;94687.38;;;26.32
31528;BMP280;10206;48.012;10.030;2023-05-07T13:34:28;94689.44;;;26.32
31528;BMP280;10206;48.012;10.030;2023-05-07T13:36:54;94696.53;;;26.39
31528;BMP280;10206;48.012;10.030;2023-05-07T13:39:21;94689.47;;;26.34
31528;BMP280;10206;48.012;10.030;2023-05-07T13:41:47;94690.47;;;26.01
31528;BMP280;10206;48.012;10.030;2023-05-07T13:44:13;94689.03;;;26.58
31528;BMP280;10206;48.012;10.030;2023-05-07T13:46:39;94694.16;;;26.77
31528;BMP280;10206;48.012;10.030;2023-05-07T13:49:05;94689.34;;;26.86
31528;BMP280;10206;48.012;10.030;2023-05-07T13:51:31;94692.44;;;27.18
31528;BMP280;10206;48.012;10.030;2023-05-07T13:53:57;94690.81;;;26.95
31528;BMP280;10206;48.012;10.030;2023-05-07T13:56:24;94695.59;;;26.82
31528;BMP280;10206;48.012;10.030;2023-05-07T13:58:50;94690.78;;;26.93
31528;BMP280;10206;48.012;10.030;2023-05-07T14:01:16;94689.00;;;27.27
31528;BMP280;10206;48.012;10.030;2023-05-07T14:03:42;94701.00;;;27.42
31528;BMP280;10206;48.012;10.030;2023-05-07T14:06:09;94703.88;;;26.72
31528;BMP280;10206;48.012;10.030;2023-05-07T14:08:35;94692.19;;;26.92
31528;BMP280;10206;48.012;10.030;2023-05-07T14:11:01;94692.94;;;26.96
31528;BMP280;10206;48.012;10.030;2023-05-07T14:13:27;94694.13;;;26.73